Time;durP1;ratioP1;P1;durP2;ratioP2;P2;SDS_P1;SDS_P2;PMS_P1;PMS_P2;Temp;Humidity;BMP_temperature;BMP_pressure;BME280_temperature;BME280_humidity;BME280_pressure;Samples;Min_cycle;Max_cycle;Signal;HPM_P1;HPM_P2
2022/05/10 00:00:33;;;;;;;3.67;2.22;;;15.30;99.90;;;;;;5075499;28;20028;-70
2022/05/10 00:03:04;;;;;;;11.15;3.28;;;15.30;99.90;;;;;;5075296;28;20032;-76
2022/05/10 00:05:37;;;;;;;3.63;1.70;;;15.50;99.90;;;;;;5075546;28;20512;-73
2022/05/10 00:08:08;;;;;;;5.60;2.53;;;15.40;99.90;;;;;;5075297;28;20029;-70
2022/05/10 00:10:36;;;;;;;7.35;2.30;;;15.40;99.90;;;;;;5074456;28;20021;-70
2022/05/10 00:13:04;;;;;;;4.20;1.98;;;15.40;99.90;;;;;;5075346;28;20043;-70
2022/05/10 00:15:32;;;;;;;3.33;1.80;;;15.50;99.90;;;;;;5075175;28;20047;-71
2022/05/10 00:18:00;;;;;;;6.18;1.98;;;15.50;99.90;;;;;;5075226;28;20040;-70
2022/05/10 00:20:28;;;;;;;6.00;2.17;;;15.60;99.90;;;;;;5074899;28;20024;-70
2022/05/10 00:22:55;;;;;;;3.38;1.92;;;15.60;99.90;;;;;;5074982;28;20033;-70
2022/05/10 00:25:28;;;;;;;3.50;1.88;;;15.70;99.90;;;;;;5074836;28;20025;-70
2022/05/10 00:27:57;;;;;;;5.53;2.20;;;15.70;99.90;;;;;;5074956;28;20021;-76
2022/05/10 00:30:24;;;;;;;6.95;2.10;;;15.70;99.90;;;;;;5074978;28;20469;-71
2022/05/10 00:32:52;;;;;;;5.40;2.40;;;15.70;99.90;;;;;;5074869;28;20025;-70
2022/05/10 00:35:26;;;;;;;8.18;2.35;;;15.80;99.90;;;;;;5074563;28;20051;-77
2022/05/10 00:37:56;;;;;;;3.65;2.25;;;15.80;99.90;;;;;;5074695;28;20388;-71
2022/05/10 00:40:27;;;;;;;3.75;2.10;;;15.80;99.90;;;;;;5074696;28;20021;-71
2022/05/10 00:43:03;;;;;;;4.80;1.40;;;15.80;99.90;;;;;;5074647;28;20032;-70
2022/05/10 00:46:09;;;;;;;6.22;1.77;;;15.80;99.90;;;;;;5075167;28;20023;-70
2022/05/10 00:49:08;;;;;;;3.55;1.80;;;15.90;99.90;;;;;;5058300;28;20040;-76
2022/05/10 00:52:02;;;;;;;4.88;1.40;;;16.00;99.90;;;;;;5074419;28;20481;-71
2022/05/10 00:55:11;;;;;;;5.20;1.58;;;16.00;99.90;;;;;;5074365;28;20036;-70
2022/05/10 00:57:45;;;;;;;6.85;1.65;;;16.10;99.90;;;;;;5069264;28;20477;-70
2022/05/10 01:00:25;;;;;;;3.75;1.50;;;16.20;99.90;;;;;;5074261;28;20040;-70
2022/05/10 01:03:08;;;;;;;5.07;1.15;;;16.20;99.90;;;;;;5074100;28;20044;-70
2022/05/10 01:05:49;;;;;;;3.90;1.73;;;16.20;99.90;;;;;;5074534;28;20048;-70
2022/05/10 01:08:24;;;;;;;3.03;1.00;;;16.30;99.90;;;;;;5074211;28;20024;-70
2022/05/10 01:11:36;;;;;;;2.40;1.33;;;16.40;99.90;;;;;;5074054;28;20028;-70
2022/05/10 01:14:30;;;;;;;6.07;1.17;;;16.50;99.90;;;;;;5068567;28;20028;-73
2022/05/10 01:16:59;;;;;;;4.55;1.15;;;16.60;99.90;;;;;;5073920;28;20031;-70
2022/05/10 01:19:26;;;;;;;4.30;1.45;;;16.60;99.90;;;;;;5073916;28;20416;-70
2022/05/10 01:21:57;;;;;;;7.10;1.15;;;16.70;99.90;;;;;;5073980;28;20029;-70
2022/05/10 01:24:40;;;;;;;4.93;1.40;;;16.80;99.90;;;;;;5073965;28;20469;-70
2022/05/10 01:27:21;;;;;;;8.63;1.27;;;16.90;99.90;;;;;;5073824;28;20025;-70
2022/05/10 01:30:08;;;;;;;7.00;1.38;;;17.10;99.90;;;;;;5073762;28;20025;-70
2022/05/10 01:36:25;;;;;;;6.90;1.02;;;17.30;99.90;;;;;;5073439;28;20047;-70
2022/05/10 01:39:09;;;;;;;4.75;1.38;;;17.30;99.90;;;;;;5071707;28;20074;-70
2022/05/10 01:41:55;;;;;;;5.55;2.05;;;17.40;99.90;;;;;;5073612;28;20020;-70
2022/05/10 01:44:26;;;;;;;5.13;1.33;;;17.40;99.90;;;;;;5074045;28;20550;-71
2022/05/10 01:47:03;;;;;;;11.20;0.90;;;17.40;99.90;;;;;;5073492;28;20100;-70
2022/05/10 01:50:23;;;;;;;5.18;0.88;;;17.40;99.90;;;;;;5073538;28;20062;-76
2022/05/10 01:53:08;;;;;;;3.35;0.70;;;17.50;99.90;;;;;;5026752;28;20439;-70
2022/05/10 01:55:37;;;;;;;5.07;1.63;;;17.50;99.90;;;;;;5073394;28;20024;-70
2022/05/10 01:58:10;;;;;;;6.30;0.82;;;17.60;99.90;;;;;;5073556;28;20016;-76
2022/05/10 02:00:39;;;;;;;4.43;1.02;;;17.60;99.90;;;;;;5073434;28;20020;-76
2022/05/10 02:03:20;;;;;;;5.72;1.02;;;17.60;99.90;;;;;;5073490;28;20033;-70
2022/05/10 02:06:00;;;;;;;14.32;0.80;;;17.70;99.90;;;;;;5073471;28;20017;-71
2022/05/10 02:09:00;;;;;;;5.00;0.88;;;17.80;99.90;;;;;;5073108;28;20036;-70
2022/05/10 02:11:29;;;;;;;7.63;0.85;;;17.80;99.90;;;;;;5073226;28;20489;-71
2022/05/10 02:14:10;;;;;;;5.80;1.50;;;17.90;99.90;;;;;;5073146;28;20024;-76
2022/05/10 02:16:55;;;;;;;6.03;1.42;;;17.90;99.90;;;;;;5073189;28;20170;-77
2022/05/10 02:19:26;;;;;;;6.20;1.15;;;17.80;99.90;;;;;;5073208;28;20016;-70
2022/05/10 02:22:21;;;;;;;3.85;0.95;;;17.80;99.90;;;;;;5073144;28;20024;-71
2022/05/10 02:24:58;;;;;;;11.00;1.13;;;17.80;99.90;;;;;;5073025;28;20024;-77
2022/05/10 02:27:42;;;;;;;4.13;0.80;;;17.70;99.90;;;;;;5073245;28;20032;-76
2022/05/10 02:30:16;;;;;;;6.15;1.08;;;17.60;99.90;;;;;;5073040;28;20098;-70
2022/05/10 02:33:06;;;;;;;8.65;1.60;;;17.60;99.90;;;;;;5073898;28;20401;-76
2022/05/10 02:35:46;;;;;;;11.20;1.25;;;17.60;99.90;;;;;;5076554;28;20493;-70
2022/05/10 02:38:21;;;;;;;5.93;1.13;;;17.60;99.90;;;;;;5076920;28;20052;-75
2022/05/10 02:40:51;;;;;;;7.07;0.98;;;17.60;99.90;;;;;;5076897;28;20028;-70
2022/05/10 02:43:32;;;;;;;4.47;0.93;;;17.60;99.90;;;;;;5077050;28;20495;-74
2022/05/10 02:46:01;;;;;;;3.85;1.30;;;17.60;99.90;;;;;;5076857;28;20033;-76
2022/05/10 02:48:32;;;;;;;9.40;1.85;;;17.50;99.90;;;;;;5076557;28;20032;-71
2022/05/10 02:51:00;;;;;;;10.00;1.50;;;17.40;99.90;;;;;;5077000;28;20036;-70
2022/05/10 02:53:29;;;;;;;9.48;2.10;;;17.40;99.90;;;;;;5076799;28;20017;-75
2022/05/10 02:55:59;;;;;;;9.48;1.50;;;17.40;99.90;;;;;;5076579;28;20060;-70
2022/05/10 02:58:45;;;;;;;3.25;0.90;;;17.30;99.90;;;;;;5076585;28;20052;-71
2022/05/10 03:01:30;;;;;;;;;;;17.40;99.90;;;;;;5077464;28;20069;-71
2022/05/10 03:03:58;;;;;;;9.50;1.33;;;17.40;99.90;;;;;;5076529;28;19913;-76
2022/05/10 03:06:27;;;;;;;4.97;1.15;;;17.40;99.90;;;;;;5076633;28;20021;-76
2022/05/10 03:08:57;;;;;;;6.50;1.10;;;17.40;99.90;;;;;;5076274;28;20029;-71
2022/05/10 03:11:25;;;;;;;11.18;1.52;;;17.40;99.90;;;;;;5076347;28;20016;-76
2022/05/10 03:13:53;;;;;;;5.07;1.08;;;17.40;99.90;;;;;;5076189;28;20031;-71
2022/05/10 03:16:23;;;;;;;5.60;1.15;;;17.40;99.90;;;;;;5076115;28;20020;-76
2022/05/10 03:18:50;;;;;;;4.25;1.40;;;17.40;99.90;;;;;;5076173;28;20020;-70
2022/05/10 03:21:18;;;;;;;5.63;1.15;;;17.40;99.90;;;;;;5076224;28;20086;-71
2022/05/10 03:23:46;;;;;;;11.45;1.20;;;17.40;99.90;;;;;;5075881;28;20435;-77
2022/05/10 03:26:17;;;;;;;7.13;0.88;;;17.40;99.90;;;;;;5076013;28;20095;-71
2022/05/10 03:28:44;;;;;;;2.90;1.10;;;17.50;99.90;;;;;;5075822;28;20024;-71
2022/05/10 03:31:16;;;;;;;8.10;1.67;;;17.50;99.90;;;;;;5076124;28;20020;-76
2022/05/10 03:33:44;;;;;;;5.85;1.23;;;17.60;99.90;;;;;;5076155;28;20024;-71
2022/05/10 03:36:12;;;;;;;4.55;1.33;;;17.70;99.90;;;;;;5075624;28;20128;-76
2022/05/10 03:38:40;;;;;;;4.53;1.10;;;17.80;99.90;;;;;;5075918;28;20025;-77
2022/05/10 03:41:08;;;;;;;5.43;0.90;;;17.90;99.90;;;;;;5075939;28;20024;-71
2022/05/10 03:43:35;;;;;;;6.97;0.85;;;18.00;99.90;;;;;;5075562;28;20036;-76
2022/05/10 03:46:07;;;;;;;3.28;1.17;;;18.00;99.90;;;;;;5074848;28;20021;-71
2022/05/10 03:48:35;;;;;;;4.65;1.33;;;18.00;99.90;;;;;;5075536;28;20481;-76
2022/05/10 03:51:02;;;;;;;5.57;1.30;;;18.00;99.90;;;;;;5075565;28;20021;-70
2022/05/10 03:53:30;;;;;;;4.32;1.35;;;18.10;99.90;;;;;;5075496;28;20028;-70
2022/05/10 03:55:58;;;;;;;5.82;1.20;;;18.10;99.90;;;;;;5075313;28;20477;-76
2022/05/10 03:58:26;;;;;;;11.38;1.73;;;18.00;99.90;;;;;;5075577;28;20023;-77
2022/05/10 04:00:53;;;;;;;2.97;0.70;;;18.00;99.90;;;;;;5075149;28;20077;-71
2022/05/10 04:03:21;;;;;;;6.35;0.90;;;18.00;99.90;;;;;;5075254;28;20061;-75
2022/05/10 04:05:48;;;;;;;5.20;1.00;;;18.00;99.90;;;;;;5075482;28;20488;-72
2022/05/10 04:08:16;;;;;;;4.57;1.33;;;17.90;99.90;;;;;;5075296;28;20518;-70
2022/05/10 04:10:44;;;;;;;10.70;1.13;;;17.90;99.90;;;;;;5075247;28;20032;-72
2022/05/10 04:13:11;;;;;;;9.68;1.27;;;17.90;99.90;;;;;;5075160;28;20074;-71
2022/05/10 04:15:39;;;;;;;7.45;1.27;;;17.90;99.90;;;;;;5075141;28;20456;-76
2022/05/10 04:18:07;;;;;;;10.38;1.33;;;17.90;99.90;;;;;;5075042;28;20163;-70
2022/05/10 04:20:35;;;;;;;5.53;0.88;;;17.90;99.90;;;;;;5074987;28;20090;-71
2022/05/10 04:23:03;;;;;;;6.32;1.50;;;17.90;99.90;;;;;;5075044;28;20029;-71
2022/05/10 04:25:30;;;;;;;3.95;1.00;;;17.90;99.90;;;;;;5074830;28;20047;-71
2022/05/10 04:27:58;;;;;;;5.18;1.08;;;17.90;99.90;;;;;;5074980;28;20535;-71
2022/05/10 04:30:26;;;;;;;7.88;1.40;;;17.80;99.90;;;;;;5074762;28;20094;-76
2022/05/10 04:32:54;;;;;;;4.35;0.68;;;17.90;99.90;;;;;;5074801;28;20070;-71
2022/05/10 04:35:21;;;;;;;4.93;1.20;;;17.90;99.90;;;;;;5074530;28;20131;-74
2022/05/10 04:37:49;;;;;;;7.78;1.25;;;18.00;99.90;;;;;;5074554;28;20021;-75
2022/05/10 04:43:05;;;;;;;7.45;1.45;;;18.00;99.90;;;;;;5074733;28;20389;-70
2022/05/10 04:45:33;;;;;;;6.68;0.80;;;18.10;99.90;;;;;;5074415;28;20024;-70
2022/05/10 04:48:01;;;;;;;6.90;0.98;;;18.20;99.90;;;;;;5074652;28;20111;-71
2022/05/10 04:50:29;;;;;;;6.28;1.08;;;18.10;99.90;;;;;;5074342;28;20016;-70
2022/05/10 04:52:56;;;;;;;7.55;1.45;;;18.10;99.90;;;;;;5074512;28;20028;-70
2022/05/10 04:55:24;;;;;;;3.85;0.90;;;18.10;99.90;;;;;;5073870;28;20027;-70
2022/05/10 04:57:52;;;;;;;6.18;1.35;;;18.10;99.90;;;;;;5074280;28;20052;-70
2022/05/10 05:00:21;;;;;;;4.97;1.15;;;18.00;99.90;;;;;;5074186;28;20541;-77
2022/05/10 05:02:48;;;;;;;8.15;0.93;;;17.90;99.90;;;;;;5074179;28;20116;-71
2022/05/10 05:05:16;;;;;;;7.47;0.85;;;17.90;99.90;;;;;;5074334;28;20039;-71
2022/05/10 05:07:44;;;;;;;4.65;1.27;;;17.80;99.90;;;;;;5074161;28;20023;-71
2022/05/10 05:10:12;;;;;;;8.65;0.82;;;17.80;99.90;;;;;;5073933;28;20027;-71
2022/05/10 05:12:39;;;;;;;8.18;0.73;;;17.70;99.90;;;;;;5073930;28;20457;-71
2022/05/10 05:15:11;;;;;;;2.78;0.55;;;17.70;99.90;;;;;;5073876;28;20485;-70
2022/05/10 05:17:39;;;;;;;7.90;1.02;;;17.70;99.90;;;;;;5074146;28;20420;-70
2022/05/10 05:20:07;;;;;;;7.28;0.88;;;17.70;99.90;;;;;;5073619;28;20085;-76
2022/05/10 05:22:35;;;;;;;3.10;0.77;;;17.60;99.90;;;;;;5073428;28;20056;-70
2022/05/10 05:25:04;;;;;;;2.53;1.10;;;17.60;99.90;;;;;;5073689;28;20036;-70
2022/05/10 05:27:33;;;;;;;9.90;0.95;;;17.60;99.90;;;;;;5073692;28;20024;-71
2022/05/10 05:30:01;;;;;;;5.07;0.93;;;17.60;99.90;;;;;;5073520;28;20035;-70
2022/05/10 05:32:34;;;;;;;6.22;1.00;;;17.50;99.90;;;;;;5073382;28;20033;-71
2022/05/10 05:35:03;;;;;;;7.07;1.20;;;17.50;99.90;;;;;;5073408;28;20044;-71
2022/05/10 05:37:34;;;;;;;11.00;1.30;;;17.50;99.90;;;;;;5073716;28;20017;-76
2022/05/10 05:40:12;;;;;;;6.57;0.70;;;17.40;99.90;;;;;;5073434;28;20038;-76
2022/05/10 05:42:40;;;;;;;4.22;0.70;;;17.50;99.90;;;;;;5073576;28;20605;-75
2022/05/10 05:45:10;;;;;;;3.45;0.75;;;17.50;99.90;;;;;;5073625;28;20118;-70
2022/05/10 05:47:39;;;;;;;4.47;0.60;;;17.60;99.90;;;;;;5073553;28;20024;-70
2022/05/10 05:50:08;;;;;;;3.22;1.35;;;17.60;99.90;;;;;;5073346;28;20033;-70
2022/05/10 05:52:37;;;;;;;2.53;0.60;;;17.50;99.90;;;;;;5073472;28;20042;-71
2022/05/10 05:55:06;;;;;;;3.15;1.08;;;17.50;99.90;;;;;;5073602;28;20042;-71
2022/05/10 05:57:34;;;;;;;3.67;0.82;;;17.40;99.90;;;;;;5073499;28;20129;-70
2022/05/10 06:00:05;;;;;;;6.18;0.85;;;17.40;99.90;;;;;;5073208;28;20017;-71
2022/05/10 06:02:33;;;;;;;3.97;0.93;;;17.30;99.90;;;;;;5073199;28;20390;-71
2022/05/10 06:05:00;;;;;;;4.25;1.00;;;17.30;99.90;;;;;;5073379;28;20390;-70
2022/05/10 06:07:28;;;;;;;2.75;1.08;;;17.40;99.90;;;;;;5072825;28;20020;-70
2022/05/10 06:09:56;;;;;;;4.82;0.88;;;17.30;99.90;;;;;;5073135;28;20067;-76
2022/05/10 06:12:24;;;;;;;8.07;1.48;;;17.30;99.90;;;;;;5073442;28;20020;-70
2022/05/10 06:14:53;;;;;;;5.80;1.23;;;17.30;99.90;;;;;;5072119;28;20048;-73
2022/05/10 06:17:20;;;;;;;3.97;0.55;;;17.20;99.90;;;;;;5073101;28;20033;-70
2022/05/10 06:19:49;;;;;;;5.60;1.70;;;17.20;99.90;;;;;;5073160;28;20533;-71
2022/05/10 06:22:16;;;;;;;6.35;1.00;;;17.10;99.90;;;;;;5073097;28;20072;-71
2022/05/10 06:24:44;;;;;;;7.07;1.60;;;17.10;99.90;;;;;;5073308;28;20024;-71
2022/05/10 06:27:16;;;;;;;13.10;1.73;;;17.10;99.90;;;;;;5072979;28;20031;-71
2022/05/10 06:29:44;;;;;;;5.35;0.73;;;17.10;99.90;;;;;;5073065;28;20019;-71
2022/05/10 06:32:19;;;;;;;3.08;0.82;;;17.10;99.90;;;;;;5073000;28;20016;-71
2022/05/10 06:34:49;;;;;;;5.32;1.02;;;17.20;99.90;;;;;;5072923;28;20071;-70
2022/05/10 06:40:09;;;;;;;8.98;1.90;;;17.20;99.90;;;;;;5073365;28;20039;-71
2022/05/10 06:42:38;;;;;;;4.75;0.80;;;17.10;99.90;;;;;;5072976;28;20124;-72
2022/05/10 06:45:10;;;;;;;6.43;0.95;;;17.10;99.90;;;;;;5072973;28;20017;-71
2022/05/10 06:47:47;;;;;;;3.63;0.57;;;17.00;99.90;;;;;;5073335;28;20443;-72
2022/05/10 06:50:17;;;;;;;4.70;1.00;;;17.00;99.90;;;;;;5072774;28;20473;-72
2022/05/10 06:52:46;;;;;;;4.38;0.98;;;17.00;99.90;;;;;;5073039;28;20032;-70
2022/05/10 06:55:14;;;;;;;4.95;0.85;;;17.00;99.90;;;;;;5072647;28;20389;-71
2022/05/10 06:57:41;;;;;;;7.07;2.13;;;17.00;99.90;;;;;;5072857;28;20044;-71
2022/05/10 07:00:13;;;;;;;10.48;7.65;;;16.90;99.90;;;;;;5072696;28;20025;-70
2022/05/10 07:02:41;;;;;;;5.95;1.58;;;16.80;99.90;;;;;;5072647;28;20029;-70
2022/05/10 07:05:10;;;;;;;7.97;0.90;;;16.80;99.90;;;;;;5072660;28;20119;-73
2022/05/10 07:07:37;;;;;;;5.60;1.63;;;16.80;99.90;;;;;;5072902;28;20469;-70
2022/05/10 07:10:11;;;;;;;11.43;4.57;;;16.70;99.90;;;;;;5072484;28;20028;-76
2022/05/10 07:12:40;;;;;;;6.80;1.65;;;16.70;99.90;;;;;;5072790;28;20028;-76
2022/05/10 07:15:15;;;;;;;9.35;1.70;;;16.80;99.90;;;;;;5072580;28;20031;-71
2022/05/10 07:17:43;;;;;;;5.45;1.35;;;16.80;99.90;;;;;;5072781;28;20420;-76
2022/05/10 07:20:13;;;;;;;6.50;0.73;;;16.80;99.90;;;;;;5075379;28;20500;-75
2022/05/10 07:22:41;;;;;;;3.90;0.77;;;16.80;99.90;;;;;;5076276;28;20033;-71
2022/05/10 07:25:12;;;;;;;4.53;0.90;;;16.70;99.90;;;;;;5076513;28;20017;-70
2022/05/10 07:27:40;;;;;;;4.65;0.70;;;16.70;99.90;;;;;;5076208;28;20024;-70
2022/05/10 07:30:10;;;;;;;9.98;0.95;;;16.70;99.90;;;;;;5075907;28;20016;-70
2022/05/10 07:32:38;;;;;;;9.15;1.13;;;16.70;99.90;;;;;;5076155;28;20025;-71
2022/05/10 07:35:07;;;;;;;3.30;0.47;;;16.70;99.90;;;;;;5075594;28;20076;-71
2022/05/10 07:37:35;;;;;;;7.18;1.20;;;16.70;99.90;;;;;;5076013;28;20033;-71
2022/05/10 07:40:04;;;;;;;2.08;0.75;;;16.60;99.90;;;;;;5075902;28;20025;-70
2022/05/10 07:42:32;;;;;;;5.60;1.17;;;16.60;99.90;;;;;;5075713;28;20542;-70
2022/05/10 07:45:00;;;;;;;7.35;1.20;;;16.60;99.90;;;;;;5075819;28;20059;-76
2022/05/10 07:47:27;;;;;;;4.78;0.73;;;16.60;99.90;;;;;;5075657;28;20028;-71
2022/05/10 07:49:55;;;;;;;2.35;1.10;;;16.50;99.90;;;;;;5075782;28;20495;-71
2022/05/10 07:52:23;;;;;;;7.75;1.52;;;16.50;99.90;;;;;;5075700;28;20028;-71
2022/05/10 07:54:50;;;;;;;8.35;2.00;;;16.50;99.90;;;;;;5075736;28;20484;-76
2022/05/10 07:57:18;;;;;;;4.65;1.25;;;16.50;99.90;;;;;;5075521;28;20032;-71
2022/05/10 07:59:46;;;;;;;5.60;1.70;;;16.50;99.90;;;;;;5075507;28;20461;-71
2022/05/10 08:02:14;;;;;;;7.00;1.35;;;16.40;99.90;;;;;;5075528;28;20032;-71
2022/05/10 08:04:41;;;;;;;3.85;1.27;;;16.40;99.90;;;;;;5075388;28;20403;-70
2022/05/10 08:07:09;;;;;;;3.28;1.00;;;16.40;99.90;;;;;;5075200;28;20048;-71
2022/05/10 08:09:37;;;;;;;4.03;1.20;;;16.40;99.90;;;;;;5075334;28;20028;-70
2022/05/10 08:12:08;;;;;;;10.85;1.15;;;16.40;99.90;;;;;;5075023;28;20028;-71
2022/05/10 08:14:36;;;;;;;4.40;1.13;;;16.40;99.90;;;;;;5075311;28;20098;-76
2022/05/10 08:17:03;;;;;;;9.00;1.25;;;16.40;99.90;;;;;;5074953;28;20043;-71
2022/05/10 08:19:31;;;;;;;6.18;1.42;;;16.50;99.90;;;;;;5074924;28;20604;-76
2022/05/10 08:21:59;;;;;;;4.57;1.20;;;16.40;99.90;;;;;;5074962;28;20024;-70
2022/05/10 08:24:27;;;;;;;3.80;1.10;;;16.40;99.90;;;;;;5075092;28;20102;-71
2022/05/10 08:26:58;;;;;;;8.85;1.40;;;16.40;99.90;;;;;;5075112;28;20098;-76
2022/05/10 08:29:26;;;;;;;5.32;1.20;;;16.30;99.90;;;;;;5074588;28;20028;-75
2022/05/10 08:31:53;;;;;;;6.32;1.17;;;16.30;99.90;;;;;;5074436;28;20107;-76
2022/05/10 08:34:21;;;;;;;4.88;1.30;;;16.30;99.90;;;;;;5074649;28;20049;-71
2022/05/10 08:36:49;;;;;;;3.83;0.82;;;16.40;99.90;;;;;;5074622;28;20033;-71
2022/05/10 08:39:16;;;;;;;3.15;1.10;;;16.30;99.90;;;;;;5074790;28;20040;-71
2022/05/10 08:41:55;;;;;;;5.13;1.00;;;16.40;99.90;;;;;;5074684;28;20436;-70
2022/05/10 08:44:39;;;;;;;2.63;0.77;;;16.40;99.90;;;;;;5074567;28;20064;-70
2022/05/10 08:47:10;;;;;;;3.22;0.85;;;16.30;99.90;;;;;;5074558;28;20086;-76
2022/05/10 08:49:50;;;;;;;7.15;1.23;;;16.30;99.90;;;;;;5074455;28;20493;-74
2022/05/10 08:52:18;;;;;;;8.32;1.00;;;16.20;99.90;;;;;;5074447;28;20032;-71
2022/05/10 08:54:46;;;;;;;9.80;1.90;;;16.20;99.90;;;;;;5074474;28;20035;-71
2022/05/10 08:57:38;;;;;;;7.72;1.58;;;16.10;99.90;;;;;;5074201;28;20112;-71
2022/05/10 09:00:27;;;;;;;4.97;1.73;;;16.10;99.90;;;;;;5074201;28;20025;-71
2022/05/10 09:02:57;;;;;;;7.70;1.38;;;16.10;99.90;;;;;;5074024;28;20033;-71
2022/05/10 09:05:31;;;;;;;4.55;1.05;;;16.10;99.90;;;;;;5074153;28;20091;-70
2022/05/10 09:08:35;;;;;;;6.05;1.05;;;16.20;99.90;;;;;;5074021;28;20074;-71
2022/05/10 09:11:06;;;;;;;10.32;1.25;;;16.20;99.90;;;;;;5074022;28;20107;-70
2022/05/10 09:13:34;;;;;;;6.70;1.90;;;16.20;99.90;;;;;;5074228;28;20513;-71
2022/05/10 09:16:08;;;;;;;2.78;1.35;;;16.20;99.90;;;;;;5073837;28;20036;-70
2022/05/10 09:18:48;;;;;;;6.82;0.88;;;16.10;99.90;;;;;;5073841;28;20112;-70
2022/05/10 09:21:24;;;;;;;5.55;1.48;;;16.10;99.90;;;;;;5074046;28;20035;-75
2022/05/10 09:24:01;;;;;;;2.67;0.85;;;16.10;99.90;;;;;;5073561;28;20139;-72
2022/05/10 09:26:47;;;;;;;8.30;2.03;;;16.10;99.90;;;;;;5073789;28;20480;-73
2022/05/10 09:29:37;;;;;;;;;;;16.10;99.90;;;;;;5074285;28;20381;-71
2022/05/10 09:35:27;;;;;;;7.07;1.25;;;16.10;99.90;;;;;;5054829;28;20550;-72
2022/05/10 09:38:00;;;;;;;5.50;1.52;;;16.10;99.90;;;;;;5052572;28;20111;-77
2022/05/10 09:40:46;;;;;;;10.20;1.30;;;16.10;99.90;;;;;;5052850;28;20059;-71
2022/05/10 09:43:22;;;;;;;5.35;1.08;;;16.00;99.90;;;;;;5052276;28;20104;-72
2022/05/10 09:46:13;;;;;;;3.67;0.98;;;16.00;99.90;;;;;;5053484;28;20036;-78
2022/05/10 09:48:43;;;;;;;5.30;1.27;;;16.10;99.90;;;;;;5053232;28;20378;-78
2022/05/10 09:51:36;;;;;;;5.93;1.25;;;16.10;99.90;;;;;;5068299;28;20366;-77
2022/05/10 09:54:28;;;;;;;4.60;1.77;;;16.10;99.90;;;;;;5052140;28;20032;-76
2022/05/10 09:56:58;;;;;;;2.85;0.88;;;16.10;99.90;;;;;;5052195;28;20013;-77
2022/05/10 09:59:38;;;;;;;5.00;1.15;;;16.10;99.90;;;;;;5052474;28;20032;-71
2022/05/10 10:02:06;;;;;;;4.15;1.27;;;16.10;99.90;;;;;;5052215;28;20028;-72
2022/05/10 10:04:37;;;;;;;4.88;0.98;;;16.20;99.90;;;;;;5051320;28;20036;-71
2022/05/10 10:07:16;;;;;;;8.07;0.90;;;16.20;99.90;;;;;;5052426;28;20021;-71
2022/05/10 10:09:48;;;;;;;7.70;1.10;;;16.10;99.90;;;;;;5053476;28;20017;-73
2022/05/10 10:12:35;;;;;;;5.50;1.25;;;16.10;99.90;;;;;;5058252;28;20028;-76
2022/05/10 10:15:16;;;;;;;4.57;0.80;;;16.20;99.90;;;;;;5056334;28;20014;-77
2022/05/10 10:18:01;;;;;;;8.27;0.90;;;16.10;99.90;;;;;;5053064;28;20033;-73
2022/05/10 10:20:37;;;;;;;6.45;1.00;;;16.10;99.90;;;;;;5052216;28;20049;-77
2022/05/10 10:23:16;;;;;;;3.72;0.80;;;16.10;99.90;;;;;;5052080;28;20029;-71
2022/05/10 10:25:48;;;;;;;5.78;0.90;;;16.10;99.90;;;;;;5052073;28;20024;-71
2022/05/10 10:28:18;;;;;;;3.28;1.38;;;16.10;99.90;;;;;;5052139;28;20025;-73
2022/05/10 10:31:11;;;;;;;2.92;0.90;;;16.10;99.90;;;;;;5054879;28;20021;-72
2022/05/10 10:33:47;;;;;;;8.38;1.45;;;16.10;99.90;;;;;;5052255;28;20027;-76
2022/05/10 10:36:24;;;;;;;5.43;1.35;;;16.10;99.90;;;;;;5051783;28;20033;-77
2022/05/10 10:38:57;;;;;;;5.70;1.20;;;16.00;99.90;;;;;;5052227;28;20040;-71
2022/05/10 10:41:40;;;;;;;6.20;1.00;;;16.00;99.90;;;;;;5052354;28;20435;-71
2022/05/10 10:44:28;;;;;;;5.82;0.98;;;16.00;99.90;;;;;;5051484;28;20535;-75
2022/05/10 10:47:27;;;;;;;3.28;1.05;;;16.00;99.90;;;;;;5051835;28;20024;-71
2022/05/10 10:50:03;;;;;;;4.00;0.70;;;16.00;99.90;;;;;;5051965;28;20024;-71
2022/05/10 10:52:31;;;;;;;5.65;1.17;;;16.00;99.90;;;;;;5051723;28;20532;-71
2022/05/10 10:55:00;;;;;;;4.88;1.00;;;15.90;99.90;;;;;;5054720;28;20033;-71
2022/05/10 10:57:42;;;;;;;6.30;1.20;;;15.90;99.90;;;;;;5056035;28;20082;-71
2022/05/10 11:00:10;;;;;;;8.73;1.80;;;15.90;99.90;;;;;;5056431;28;20025;-71
2022/05/10 11:03:09;;;;;;;4.68;1.42;;;16.00;99.90;;;;;;5055477;28;20386;-71
2022/05/10 11:05:56;;;;;;;6.38;1.20;;;16.00;99.90;;;;;;5050825;28;20033;-71
2022/05/10 11:08:53;;;;;;;3.13;0.80;;;16.00;99.90;;;;;;5055255;28;20017;-72
2022/05/10 11:11:43;;;;;;;3.72;0.70;;;16.00;99.90;;;;;;5055668;28;20017;-71
2022/05/10 11:14:21;;;;;;;3.58;1.08;;;16.00;99.90;;;;;;5054588;28;20025;-74
2022/05/10 11:17:13;;;;;;;3.72;0.73;;;16.00;99.90;;;;;;5055356;28;20058;-71
2022/05/10 11:20:01;;;;;;;5.20;0.75;;;16.10;99.90;;;;;;5055035;28;20032;-77
2022/05/10 11:22:41;;;;;;;4.28;0.68;;;16.00;99.90;;;;;;5053849;28;20025;-77
2022/05/10 11:25:31;;;;;;;3.17;0.82;;;16.00;99.90;;;;;;5055052;28;20430;-71
2022/05/10 11:28:13;;;;;;;4.07;1.25;;;16.00;99.90;;;;;;5055081;28;20017;-76
2022/05/10 11:30:46;;;;;;;2.25;0.80;;;16.10;99.90;;;;;;5054704;28;20428;-76
2022/05/10 11:33:23;;;;;;;6.97;1.05;;;16.10;99.90;;;;;;5054583;28;20029;-76
2022/05/10 11:36:08;;;;;;;3.33;0.70;;;16.10;99.90;;;;;;5054158;28;20489;-76
2022/05/10 11:39:04;;;;;;;3.28;0.98;;;16.20;99.90;;;;;;5054554;28;20075;-76
2022/05/10 11:41:37;;;;;;;5.00;0.73;;;16.20;99.90;;;;;;4999998;28;20046;-76
2022/05/10 11:44:40;;;;;;;2.92;0.95;;;16.20;99.90;;;;;;5071936;28;20029;-71
2022/05/10 11:47:10;;;;;;;3.40;0.80;;;16.20;99.90;;;;;;5065715;28;20085;-71
2022/05/10 11:50:15;;;;;;;5.85;1.00;;;16.20;99.90;;;;;;5062243;28;20021;-75
2022/05/10 11:53:04;;;;;;;3.75;0.60;;;16.30;99.90;;;;;;5055679;28;20028;-75
2022/05/10 11:55:58;;;;;;;7.10;0.80;;;16.30;99.90;;;;;;5054825;28;20017;-71
2022/05/10 11:58:31;;;;;;;2.40;0.70;;;16.30;99.90;;;;;;5062044;28;20063;-75
2022/05/10 12:01:04;;;;;;;4.13;1.00;;;16.30;99.90;;;;;;5054837;28;20041;-74
2022/05/10 12:03:43;;;;;;;3.67;1.45;;;16.40;99.90;;;;;;5070827;28;20493;-72
2022/05/10 12:06:35;;;;;;;3.30;0.85;;;16.40;99.90;;;;;;5073634;28;20021;-77
2022/05/10 12:09:05;;;;;;;2.45;0.70;;;16.40;99.90;;;;;;5069051;28;20031;-76
2022/05/10 12:11:32;;;;;;;2.88;0.80;;;16.30;99.90;;;;;;5074531;28;20021;-75
2022/05/10 12:22:56;;;;;;;5.50;1.00;;;16.20;99.90;;;;;;5074297;28;20170;-76
2022/05/10 12:25:50;;;;;;;2.63;0.55;;;16.10;99.90;;;;;;5074138;28;20020;-75
2022/05/10 12:28:40;;;;;;;5.20;0.63;;;16.00;99.90;;;;;;5074040;28;20027;-76
2022/05/10 12:31:32;;;;;;;2.92;0.65;;;15.90;99.90;;;;;;5074721;28;20028;-71
2022/05/10 12:34:03;;;;;;;2.72;0.93;;;15.80;99.90;;;;;;5074449;28;20093;-71
2022/05/10 12:36:35;;;;;;;4.32;0.80;;;15.70;99.90;;;;;;5074559;28;20059;-74
2022/05/10 12:39:21;;;;;;;2.80;0.90;;;15.70;99.90;;;;;;5074648;28;20381;-72
2022/05/10 12:42:02;;;;;;;2.92;0.40;;;15.70;99.90;;;;;;5074520;28;20024;-71
2022/05/10 12:44:57;;;;;;;4.35;1.17;;;15.60;99.90;;;;;;5074566;28;20501;-75
2022/05/10 12:47:55;;;;;;;4.75;0.80;;;15.50;99.90;;;;;;5074607;28;20031;-72
2022/05/10 12:50:54;;;;;;;4.47;1.05;;;15.50;99.90;;;;;;5074427;28;20500;-72
2022/05/10 12:53:24;;;;;;;2.42;0.50;;;15.50;99.90;;;;;;5074410;28;20083;-74
2022/05/10 12:55:58;;;;;;;4.82;1.10;;;15.40;99.90;;;;;;5074136;28;20059;-75
2022/05/10 12:58:30;;;;;;;5.97;0.80;;;15.40;99.90;;;;;;5073704;28;20047;-76
2022/05/10 13:01:01;;;;;;;5.13;0.95;;;15.40;99.90;;;;;;5073722;28;20020;-73
2022/05/10 13:03:37;;;;;;;4.57;0.90;;;15.40;99.90;;;;;;5073461;28;20032;-72
2022/05/10 13:06:34;;;;;;;3.75;0.75;;;15.40;99.90;;;;;;5074113;28;20023;-71
2022/05/10 13:09:15;;;;;;;4.75;0.80;;;15.40;99.90;;;;;;5074129;28;20028;-76
2022/05/10 13:11:59;;;;;;;5.97;0.75;;;15.40;99.90;;;;;;5073345;28;20441;-72
2022/05/10 13:14:29;;;;;;;5.15;1.02;;;15.40;99.90;;;;;;5073319;28;20023;-76
2022/05/10 13:16:59;;;;;;;4.32;0.95;;;15.40;99.90;;;;;;5073657;28;20111;-71
2022/05/10 13:19:28;;;;;;;5.80;1.40;;;15.40;99.90;;;;;;5074105;28;20025;-71
2022/05/10 13:21:57;;;;;;;8.27;0.63;;;15.40;99.90;;;;;;5074165;28;20112;-71
2022/05/10 13:24:29;;;;;;;7.72;1.23;;;15.40;99.90;;;;;;5072773;28;20036;-71
2022/05/10 13:27:04;;;;;;;2.30;0.68;;;15.30;99.90;;;;;;5074028;28;20043;-70
2022/05/10 13:29:48;;;;;;;3.75;0.77;;;15.30;99.90;;;;;;5073893;28;20115;-75
2022/05/10 13:32:34;;;;;;;3.78;1.35;;;15.30;99.90;;;;;;5073766;28;20068;-71
2022/05/10 13:35:19;;;;;;;4.32;0.95;;;15.20;99.90;;;;;;5089072;28;20164;-71
2022/05/10 13:38:20;;;;;;;3.00;0.57;;;15.20;99.90;;;;;;5073708;28;20035;-75
2022/05/10 13:40:50;;;;;;;2.50;0.70;;;15.20;99.90;;;;;;5073409;28;20035;-70
2022/05/10 13:43:44;;;;;;;7.72;1.92;;;15.30;99.90;;;;;;5073537;28;20170;-71
2022/05/10 13:46:19;;;;;;;5.35;0.80;;;15.30;99.90;;;;;;5073646;28;20024;-70
2022/05/10 13:49:06;;;;;;;6.93;0.90;;;15.30;99.90;;;;;;5073480;28;20473;-70